New Lisbon, Indiana
Current Conditions -  °F | °C
As of 4:53 PM on Saturday 25 Oct 2014 (Local Time) from KMIE Reporting Station
Clear Clear  
Wind Chill: 23°   Ceiling: Unl
Heat Index: 23°   Visibility: 10mi
Dew Point:   Wind: 9mph
Humidity: 40%   Direction: 310°NW
Pressure: 29.9"   Gusts: NA
Location:  39.86°N, 85.26°W
Report Text: KMIE 252053Z 31008KT 10SM CLR 23/09 A2990 RMK AO2 RAE13B34E45 SLP117 P0000 60000 T02330089 55006
Loading
Personal Weather Stations






























Interactive Weather Map
Tropical Storm Tracking
New forecast layout! Learn more

10-Day Weather Forecast

Advertisements
Track Severe Weather on mobile